Time;durP1;ratioP1;P1;durP2;ratioP2;P2;SDS_P1;SDS_P2;PMS_P1;PMS_P2;Temp;Humidity;BMP_temperature;BMP_pressure;BME280_temperature;BME280_humidity;BME280_pressure;Samples;Min_cycle;Max_cycle;Signal;HPM_P1;HPM_P2
2022/01/08 00:01:16;;;;;;;15.63;8.40;;;20.90;55.90;;;;;;5033855;28;20021;-67
2022/01/08 00:03:42;;;;;;;19.52;8.65;;;20.90;55.90;;;;;;5033994;28;20064;-67
2022/01/08 00:06:08;;;;;;;15.65;8.18;;;20.90;55.90;;;;;;5035042;28;20078;-67
2022/01/08 00:08:34;;;;;;;16.13;7.88;;;20.90;55.90;;;;;;5033319;28;20049;-67
2022/01/08 00:10:59;;;;;;;15.80;7.80;;;21.00;56.00;;;;;;5034911;28;20061;-67
2022/01/08 00:13:25;;;;;;;15.13;7.43;;;20.90;56.00;;;;;;5033766;28;20034;-67
2022/01/08 00:15:51;;;;;;;17.13;7.50;;;21.00;56.00;;;;;;5034810;28;20029;-67
2022/01/08 00:18:16;;;;;;;14.07;7.95;;;21.00;56.00;;;;;;5045258;28;20017;-67
2022/01/08 00:20:42;;;;;;;14.48;7.72;;;21.00;56.00;;;;;;5054340;28;20466;-67
2022/01/08 00:23:08;;;;;;;15.23;7.70;;;20.90;56.00;;;;;;5052228;28;20075;-67
2022/01/08 00:25:33;;;;;;;14.55;7.57;;;21.00;56.00;;;;;;5054468;28;20025;-67
2022/01/08 00:27:59;;;;;;;15.05;7.82;;;21.00;56.00;;;;;;5054402;28;20388;-67
2022/01/08 00:30:25;;;;;;;14.75;8.20;;;21.00;56.00;;;;;;5053313;28;20032;-67
2022/01/08 00:32:50;;;;;;;12.20;7.07;;;21.00;56.00;;;;;;5053265;28;20029;-68
2022/01/08 00:35:17;;;;;;;14.07;7.68;;;21.00;56.00;;;;;;5054509;28;20029;-67
2022/01/08 00:37:43;;;;;;;14.60;7.75;;;21.00;56.00;;;;;;5054199;28;20017;-67
2022/01/08 00:40:09;;;;;;;14.80;7.80;;;21.00;56.00;;;;;;5054224;28;20108;-67
2022/01/08 00:42:35;;;;;;;14.40;7.30;;;21.00;56.00;;;;;;5036439;28;20025;-67
2022/01/08 00:45:01;;;;;;;12.77;7.40;;;21.00;56.00;;;;;;5052972;28;20036;-67
2022/01/08 00:47:27;;;;;;;13.25;6.95;;;21.00;56.00;;;;;;5054243;28;20025;-67
2022/01/08 00:49:52;;;;;;;10.57;6.55;;;21.00;56.00;;;;;;5036107;28;20033;-67
2022/01/08 00:52:18;;;;;;;13.38;7.07;;;21.00;56.00;;;;;;5053682;28;20021;-67
2022/01/08 00:54:44;;;;;;;12.60;6.97;;;21.00;56.00;;;;;;5052802;28;20028;-67
2022/01/08 00:57:09;;;;;;;14.45;7.03;;;21.00;56.00;;;;;;5033804;28;20025;-67
2022/01/08 00:59:35;;;;;;;14.15;7.07;;;21.00;56.10;;;;;;5032971;28;20384;-67
2022/01/08 01:02:00;;;;;;;14.07;7.13;;;21.00;56.00;;;;;;5033843;28;20075;-68
2022/01/08 01:04:26;;;;;;;12.95;6.68;;;21.00;56.00;;;;;;5032733;28;20037;-67
2022/01/08 01:06:52;;;;;;;13.73;6.80;;;21.00;56.00;;;;;;5033652;28;20013;-67
2022/01/08 01:09:18;;;;;;;16.60;6.85;;;21.00;56.00;;;;;;5033865;28;20080;-67
2022/01/08 01:11:43;;;;;;;13.32;6.85;;;21.00;56.00;;;;;;5033847;28;20017;-67
2022/01/08 01:14:09;;;;;;;13.73;7.20;;;21.00;56.00;;;;;;5032304;28;20036;-67
2022/01/08 01:16:34;;;;;;;14.48;7.05;;;21.00;56.00;;;;;;5033808;28;20026;-67
2022/01/08 01:19:02;;;;;;;16.65;7.22;;;21.00;56.10;;;;;;5049978;28;20052;-67
2022/01/08 01:21:28;;;;;;;12.80;6.85;;;21.00;56.00;;;;;;5053121;28;20028;-67
2022/01/08 01:23:54;;;;;;;13.43;6.95;;;21.00;56.00;;;;;;5053391;28;20025;-67
2022/01/08 01:26:24;;;;;;;14.63;6.55;;;21.00;56.00;;;;;;5035696;28;20045;-67
2022/01/08 01:29:25;;;;;;;11.65;6.68;;;21.00;56.10;;;;;;5053482;28;20036;-67
2022/01/08 01:43:38;;;;;;;12.75;6.13;;;20.90;56.20;;;;;;5053032;28;20035;-67
2022/01/08 01:48:10;;;;;;;11.05;6.40;;;20.90;57.30;;;;;;5052920;28;20035;-67
2022/01/08 01:50:36;;;;;;;11.77;7.13;;;20.90;56.30;;;;;;5052630;28;20399;-68
2022/01/08 01:53:01;;;;;;;11.88;6.43;;;20.90;56.30;;;;;;5051669;28;20033;-67
2022/01/08 01:55:27;;;;;;;11.05;5.90;;;20.90;56.20;;;;;;5048178;28;20026;-67
2022/01/08 01:57:53;;;;;;;11.63;6.00;;;20.90;56.30;;;;;;5031623;28;20048;-67
2022/01/08 02:00:18;;;;;;;11.65;6.07;;;20.90;56.30;;;;;;5032853;28;20536;-67
2022/01/08 02:02:44;;;;;;;12.18;6.30;;;20.90;56.30;;;;;;5032796;28;20034;-67
2022/01/08 02:05:10;;;;;;;10.88;6.30;;;20.90;56.30;;;;;;5032358;28;20092;-67
2022/01/08 02:07:35;;;;;;;8.93;5.32;;;20.90;56.30;;;;;;5031962;28;20399;-67
2022/01/08 02:10:01;;;;;;;10.63;6.13;;;20.90;56.30;;;;;;5032460;28;20030;-67
2022/01/08 02:12:30;;;;;;;10.85;6.45;;;20.90;56.30;;;;;;5032623;28;20104;-67
2022/01/08 02:14:56;;;;;;;9.98;5.60;;;20.90;56.30;;;;;;5031670;28;20452;-67
2022/01/08 02:17:22;;;;;;;12.15;6.32;;;20.90;56.30;;;;;;5035198;28;20041;-67
2022/01/08 02:19:52;;;;;;;10.88;6.10;;;20.90;56.30;;;;;;5052142;28;20021;-67
2022/01/08 02:22:20;;;;;;;11.48;5.68;;;20.90;56.40;;;;;;5051226;28;20119;-67
2022/01/08 02:24:46;;;;;;;9.75;5.53;;;20.90;56.40;;;;;;5051238;28;20024;-67
2022/01/08 02:27:11;;;;;;;10.30;5.90;;;20.90;56.40;;;;;;5034411;28;20098;-67
2022/01/08 02:29:37;;;;;;;9.85;5.05;;;20.90;56.40;;;;;;5052350;28;20017;-67
2022/01/08 02:32:08;;;;;;;9.60;5.22;;;20.90;56.40;;;;;;5050937;28;20020;-67
2022/01/08 02:34:35;;;;;;;8.93;5.05;;;20.90;56.40;;;;;;5050757;28;20025;-67
2022/01/08 02:37:01;;;;;;;9.88;5.20;;;20.90;56.40;;;;;;5052260;28;20017;-67
2022/01/08 02:39:27;;;;;;;9.38;5.03;;;20.90;57.40;;;;;;5052253;28;20013;-67
2022/01/08 02:41:58;;;;;;;10.50;5.53;;;21.00;56.50;;;;;;5051163;28;20075;-67
2022/01/08 02:44:24;;;;;;;8.05;5.10;;;20.90;56.50;;;;;;5052203;28;20052;-67
2022/01/08 02:46:49;;;;;;;9.68;5.15;;;20.90;56.50;;;;;;5050598;28;20103;-67
2022/01/08 02:49:15;;;;;;;8.68;4.85;;;20.90;56.40;;;;;;5050579;28;20024;-67
2022/01/08 02:51:41;;;;;;;8.77;4.80;;;21.00;56.50;;;;;;5050995;28;20154;-67
2022/01/08 02:54:08;;;;;;;7.40;4.93;;;20.90;56.50;;;;;;5052036;28;20056;-67
2022/01/08 02:56:43;;;;;;;11.00;4.65;;;20.90;56.50;;;;;;5036931;28;20033;-67
2022/01/08 02:59:08;;;;;;;9.00;4.57;;;21.00;56.50;;;;;;5032049;28;20021;-67
2022/01/08 03:01:34;;;;;;;8.70;4.65;;;20.90;56.60;;;;;;5031075;28;20388;-67
2022/01/08 03:04:00;;;;;;;8.50;4.80;;;21.00;56.60;;;;;;5030653;28;20029;-67
2022/01/08 03:06:26;;;;;;;9.25;4.95;;;21.00;56.60;;;;;;5030883;28;20036;-67
2022/01/08 03:08:51;;;;;;;9.23;4.75;;;20.90;56.60;;;;;;5032252;28;20025;-67
2022/01/08 03:11:17;;;;;;;9.65;5.00;;;21.00;56.60;;;;;;5030669;28;20037;-67
2022/01/08 03:13:43;;;;;;;6.32;3.97;;;21.00;56.60;;;;;;5032152;28;20056;-67
2022/01/08 03:16:08;;;;;;;7.85;4.57;;;21.00;56.60;;;;;;5032192;28;20029;-67
2022/01/08 03:18:36;;;;;;;6.95;4.22;;;21.00;56.60;;;;;;5043318;28;20028;-67
2022/01/08 03:21:12;;;;;;;7.97;4.35;;;20.90;56.60;;;;;;5051980;28;20403;-67
2022/01/08 03:23:44;;;;;;;6.57;3.95;;;20.90;56.60;;;;;;5050853;28;20021;-67
2022/01/08 03:26:10;;;;;;;7.30;4.70;;;20.90;56.60;;;;;;5050362;28;20051;-67
2022/01/08 03:28:35;;;;;;;8.35;4.80;;;20.90;56.60;;;;;;5050586;28;20025;-67
2022/01/08 03:31:01;;;;;;;8.82;4.72;;;21.00;56.70;;;;;;5051886;28;20029;-67
2022/01/08 03:33:26;;;;;;;8.40;4.22;;;21.00;56.70;;;;;;5050003;28;20029;-67
2022/01/08 03:35:52;;;;;;;10.77;4.55;;;21.00;56.70;;;;;;5051684;28;20079;-67
2022/01/08 03:38:18;;;;;;;10.75;5.03;;;21.00;56.70;;;;;;5050316;28;20112;-67
2022/01/08 03:40:43;;;;;;;8.32;4.35;;;21.00;56.70;;;;;;5052136;28;20040;-68
2022/01/08 03:43:09;;;;;;;6.75;4.32;;;20.90;56.70;;;;;;5051453;28;20492;-68
2022/01/08 03:45:34;;;;;;;6.35;4.20;;;21.00;56.80;;;;;;5051654;28;20021;-67
2022/01/08 03:48:19;;;;;;;7.43;4.40;;;20.90;56.70;;;;;;5051210;28;20020;-67
2022/01/08 03:50:45;;;;;;;6.50;3.88;;;20.90;56.70;;;;;;5051507;28;20029;-68
2022/01/08 03:53:11;;;;;;;7.72;4.45;;;21.00;57.80;;;;;;5048800;28;20025;-67
2022/01/08 03:55:37;;;;;;;8.32;4.10;;;20.90;56.80;;;;;;5031809;28;20037;-67
2022/01/08 03:58:03;;;;;;;6.72;3.95;;;20.90;56.80;;;;;;5045829;28;20021;-67
2022/01/08 04:00:29;;;;;;;8.85;4.43;;;20.90;56.80;;;;;;5035836;28;20028;-67
2022/01/08 04:02:55;;;;;;;10.65;4.30;;;21.00;56.90;;;;;;5047458;28;20151;-67
2022/01/08 04:05:21;;;;;;;8.35;4.45;;;20.90;56.80;;;;;;5035034;28;20029;-67
2022/01/08 04:07:46;;;;;;;6.13;4.00;;;20.90;56.80;;;;;;5049585;28;20025;-67
2022/01/08 04:10:12;;;;;;;6.07;3.88;;;20.90;56.80;;;;;;5042243;28;20078;-67
2022/01/08 04:12:48;;;;;;;5.93;3.70;;;20.90;56.70;;;;;;5035326;28;20059;-67
2022/01/08 04:15:33;;;;;;;6.40;3.78;;;20.90;56.80;;;;;;5033975;28;20123;-67
2022/01/08 04:17:59;;;;;;;6.05;3.35;;;20.90;56.80;;;;;;5037541;28;20056;-67
2022/01/08 04:20:25;;;;;;;6.53;3.78;;;20.90;56.80;;;;;;5052934;28;20119;-67
2022/01/08 04:22:51;;;;;;;6.85;4.05;;;20.90;56.80;;;;;;5052456;28;20027;-67
2022/01/08 04:25:21;;;;;;;6.43;3.50;;;20.90;56.80;;;;;;5051214;28;20029;-68
2022/01/08 04:27:46;;;;;;;5.35;3.50;;;20.90;56.80;;;;;;5035720;28;20045;-67
2022/01/08 04:30:12;;;;;;;4.05;3.10;;;20.90;56.80;;;;;;5033665;28;20395;-67
2022/01/08 04:32:39;;;;;;;6.38;3.50;;;20.90;56.80;;;;;;5053375;28;20029;-67
2022/01/08 04:35:05;;;;;;;5.82;3.35;;;20.80;56.80;;;;;;5039330;28;20510;-67
2022/01/08 04:37:31;;;;;;;4.18;3.03;;;20.90;56.80;;;;;;5049280;28;20112;-67
2022/01/08 04:39:56;;;;;;;3.75;2.90;;;20.90;56.80;;;;;;5033291;28;20542;-67
2022/01/08 04:42:22;;;;;;;5.43;3.30;;;20.90;56.80;;;;;;5032344;28;20033;-67
2022/01/08 04:44:48;;;;;;;5.35;3.40;;;20.90;56.80;;;;;;5033276;28;20032;-67
2022/01/08 04:47:13;;;;;;;5.88;3.30;;;20.90;56.80;;;;;;5033233;28;20049;-67
2022/01/08 04:49:39;;;;;;;6.07;3.45;;;20.90;56.80;;;;;;5033834;28;20087;-67
2022/01/08 04:52:05;;;;;;;4.57;2.95;;;20.90;56.80;;;;;;5034277;28;20029;-67
2022/01/08 04:54:31;;;;;;;5.68;3.00;;;20.90;56.80;;;;;;5015995;28;20024;-67
2022/01/08 04:56:56;;;;;;;6.20;3.53;;;20.90;56.80;;;;;;5034137;28;20025;-67
2022/01/08 04:59:22;;;;;;;5.85;3.22;;;20.90;56.90;;;;;;5032511;28;20032;-67
2022/01/08 05:01:47;;;;;;;5.82;3.42;;;20.90;56.80;;;;;;5034079;28;20025;-67
2022/01/08 05:04:13;;;;;;;4.40;3.00;;;20.90;56.80;;;;;;5032702;28;20039;-67
2022/01/08 05:06:39;;;;;;;4.38;3.00;;;20.90;56.90;;;;;;5033967;28;20403;-67
2022/01/08 05:09:04;;;;;;;6.00;3.15;;;20.90;56.90;;;;;;5033443;28;20484;-67
2022/01/08 05:11:30;;;;;;;5.35;3.10;;;20.80;56.80;;;;;;5032608;28;20127;-67
2022/01/08 05:13:56;;;;;;;4.70;3.13;;;20.90;56.90;;;;;;5032340;28;20040;-67
2022/01/08 05:16:22;;;;;;;5.85;3.22;;;20.90;56.90;;;;;;5032417;28;20480;-67
2022/01/08 05:18:50;;;;;;;4.82;2.78;;;20.80;56.90;;;;;;5047304;28;20048;-67
2022/01/08 05:23:41;;;;;;;5.22;3.38;;;20.90;56.90;;;;;;5052441;28;20029;-67
2022/01/08 05:26:07;;;;;;;4.60;3.20;;;20.80;56.90;;;;;;5052271;28;20162;-67
2022/01/08 05:28:33;;;;;;;5.18;3.00;;;20.90;56.90;;;;;;5053063;28;20031;-67
2022/01/08 05:30:58;;;;;;;6.75;3.08;;;20.80;56.90;;;;;;5052296;28;20056;-67
2022/01/08 05:33:24;;;;;;;4.38;3.10;;;20.80;56.90;;;;;;5035312;28;20441;-67
2022/01/08 05:35:50;;;;;;;3.63;2.42;;;20.80;56.90;;;;;;5051934;28;20109;-67
2022/01/08 05:38:15;;;;;;;4.80;2.70;;;20.80;56.90;;;;;;5053313;28;20027;-67
2022/01/08 05:40:41;;;;;;;4.60;2.80;;;20.80;57.00;;;;;;5051830;28;20411;-67
2022/01/08 05:43:06;;;;;;;5.00;3.00;;;20.80;57.00;;;;;;5052931;28;20406;-67
2022/01/08 05:45:32;;;;;;;3.83;2.58;;;20.80;56.90;;;;;;5052929;28;20029;-67
2022/01/08 05:47:58;;;;;;;4.93;3.00;;;20.80;56.90;;;;;;5051827;28;20025;-67
2022/01/08 05:50:23;;;;;;;4.70;2.75;;;20.80;56.90;;;;;;5053232;28;20078;-67
2022/01/08 05:52:49;;;;;;;5.72;2.72;;;20.80;56.90;;;;;;5051834;28;20032;-67
2022/01/08 05:55:15;;;;;;;4.50;2.83;;;20.80;57.00;;;;;;5049763;28;20033;-67
2022/01/08 05:57:41;;;;;;;5.35;2.60;;;20.80;57.00;;;;;;5031409;28;20082;-67
2022/01/08 06:00:07;;;;;;;4.57;2.72;;;20.80;57.00;;;;;;5031808;28;20507;-67
2022/01/08 06:02:33;;;;;;;4.65;2.80;;;20.80;57.00;;;;;;5031730;28;20099;-67
2022/01/08 06:04:59;;;;;;;4.10;2.50;;;20.80;57.00;;;;;;5031593;28;20065;-67
2022/01/08 06:07:24;;;;;;;5.18;3.00;;;20.80;57.00;;;;;;5032730;28;20476;-67
2022/01/08 06:09:50;;;;;;;3.85;2.47;;;20.80;57.00;;;;;;5032825;28;20033;-67
2022/01/08 06:12:15;;;;;;;4.60;2.53;;;20.80;57.00;;;;;;5032504;28;20168;-67
2022/01/08 06:14:41;;;;;;;3.83;2.40;;;20.80;57.00;;;;;;5031220;28;20480;-67
2022/01/08 06:17:07;;;;;;;4.32;2.50;;;20.80;57.00;;;;;;5032446;28;20045;-67
2022/01/08 06:19:33;;;;;;;4.03;2.58;;;20.80;57.00;;;;;;5052475;28;20029;-67
2022/01/08 06:21:59;;;;;;;5.00;2.60;;;20.80;57.00;;;;;;5051874;28;20028;-67
2022/01/08 06:24:25;;;;;;;3.60;2.42;;;20.80;57.00;;;;;;5018193;28;20407;-67
2022/01/08 06:26:50;;;;;;;4.75;2.25;;;20.80;57.00;;;;;;5051804;28;20041;-67
2022/01/08 06:29:16;;;;;;;2.90;2.28;;;20.80;57.00;;;;;;5052432;28;20029;-67
2022/01/08 06:31:41;;;;;;;3.17;2.50;;;20.80;57.10;;;;;;5051124;28;20017;-67
2022/01/08 06:34:07;;;;;;;5.00;3.10;;;20.80;57.10;;;;;;5051186;28;20094;-67
2022/01/08 06:36:33;;;;;;;4.65;2.58;;;20.80;58.10;;;;;;5050876;28;20021;-67
2022/01/08 06:38:58;;;;;;;3.80;2.35;;;20.80;57.10;;;;;;5052327;28;20033;-67
2022/01/08 06:41:24;;;;;;;3.33;2.20;;;20.80;57.10;;;;;;5050844;28;20496;-67
2022/01/08 06:43:50;;;;;;;3.55;2.40;;;20.80;57.10;;;;;;5052008;28;20036;-67
2022/01/08 06:46:15;;;;;;;4.18;2.88;;;20.80;57.10;;;;;;5051133;28;20059;-67
2022/01/08 06:48:41;;;;;;;3.60;2.10;;;20.80;57.10;;;;;;5052155;28;20488;-67
2022/01/08 06:51:07;;;;;;;4.15;2.40;;;20.80;57.20;;;;;;5052334;28;20395;-67
2022/01/08 06:53:33;;;;;;;3.33;1.90;;;20.80;57.10;;;;;;5034344;28;20048;-67
2022/01/08 06:55:58;;;;;;;4.03;2.38;;;20.80;57.20;;;;;;5041573;28;20021;-67
2022/01/08 06:58:26;;;;;;;5.72;2.50;;;20.80;57.20;;;;;;5032073;28;20086;-67
2022/01/08 07:00:51;;;;;;;3.65;2.38;;;20.80;57.10;;;;;;5031147;28;20024;-67
2022/01/08 07:03:17;;;;;;;3.10;2.30;;;20.80;57.10;;;;;;5032094;28;20033;-67
2022/01/08 07:05:43;;;;;;;3.35;2.38;;;20.80;57.20;;;;;;5031047;28;20032;-67
2022/01/08 07:08:10;;;;;;;2.83;1.90;;;20.80;57.20;;;;;;5031191;28;20487;-67
2022/01/08 07:10:36;;;;;;;3.10;2.15;;;20.80;57.20;;;;;;5031684;28;20025;-67
2022/01/08 07:13:01;;;;;;;2.40;1.90;;;20.80;57.20;;;;;;5031918;28;20037;-67
2022/01/08 07:15:27;;;;;;;3.15;2.05;;;20.80;57.20;;;;;;5032091;28;20101;-67
2022/01/08 07:17:53;;;;;;;3.55;2.20;;;20.80;57.20;;;;;;5037828;28;20021;-67
2022/01/08 07:20:18;;;;;;;4.05;2.25;;;20.80;57.20;;;;;;5050732;28;20092;-67
2022/01/08 07:22:44;;;;;;;3.97;2.10;;;20.80;57.30;;;;;;5051771;28;20116;-67
2022/01/08 07:25:10;;;;;;;3.58;2.10;;;20.80;57.30;;;;;;5051514;28;20029;-67
2022/01/08 07:27:36;;;;;;;2.38;1.88;;;20.80;57.20;;;;;;5051668;28;20049;-67
2022/01/08 07:30:05;;;;;;;3.35;2.22;;;20.80;57.30;;;;;;5034191;28;20493;-67
2022/01/08 07:32:31;;;;;;;2.90;1.85;;;20.80;57.30;;;;;;5022082;28;20400;-67
2022/01/08 07:34:57;;;;;;;2.83;2.00;;;20.80;57.30;;;;;;5034949;28;20017;-67
2022/01/08 07:37:22;;;;;;;2.50;1.92;;;20.80;57.30;;;;;;5049235;28;20032;-67
2022/01/08 07:39:48;;;;;;;3.75;2.05;;;20.80;57.30;;;;;;5038650;28;20022;-67
2022/01/08 07:42:14;;;;;;;2.10;1.75;;;20.80;57.40;;;;;;5049486;28;20022;-67
2022/01/08 07:44:39;;;;;;;2.88;2.30;;;20.80;57.40;;;;;;5043108;28;20478;-67
2022/01/08 07:47:06;;;;;;;2.55;1.88;;;20.80;57.40;;;;;;5053312;28;20025;-67
2022/01/08 07:49:31;;;;;;;3.97;2.00;;;20.90;57.40;;;;;;5055399;28;20036;-67
2022/01/08 07:51:57;;;;;;;2.20;1.75;;;20.90;57.40;;;;;;5046422;28;20468;-67
2022/01/08 07:54:22;;;;;;;3.17;1.98;;;20.90;57.40;;;;;;5048975;28;20025;-67
2022/01/08 07:56:48;;;;;;;2.25;1.58;;;20.90;57.40;;;;;;5035718;28;20561;-67
2022/01/08 07:59:14;;;;;;;2.72;1.80;;;20.90;57.40;;;;;;5039897;28;20017;-67
2022/01/08 08:01:40;;;;;;;3.35;1.77;;;20.90;57.40;;;;;;5046533;28;20101;-66
2022/01/08 08:04:06;;;;;;;1.67;1.58;;;20.90;57.50;;;;;;5045608;28;20032;-66
2022/01/08 08:06:32;;;;;;;2.03;1.40;;;20.80;57.00;;;;;;5039476;28;20029;-67
2022/01/08 08:08:58;;;;;;;2.40;1.55;;;20.80;57.00;;;;;;5034637;28;20029;-67
2022/01/08 08:11:24;;;;;;;4.53;1.60;;;20.80;57.20;;;;;;5035014;28;20038;-67
2022/01/08 08:13:49;;;;;;;1.92;1.48;;;20.80;57.20;;;;;;5033613;28;20468;-68
2022/01/08 08:16:15;;;;;;;1.98;1.33;;;20.80;57.30;;;;;;5034032;28;20021;-67
2022/01/08 08:18:41;;;;;;;2.80;1.63;;;20.80;57.30;;;;;;5046660;28;20418;-67
2022/01/08 08:21:06;;;;;;;4.20;1.45;;;20.80;57.30;;;;;;5043824;28;20068;-67
2022/01/08 08:23:32;;;;;;;1.88;1.30;;;20.80;57.30;;;;;;5049520;28;20025;-67
2022/01/08 08:25:57;;;;;;;2.15;1.70;;;20.80;57.30;;;;;;5037272;28;20041;-67
2022/01/08 08:28:23;;;;;;;3.08;1.88;;;20.80;57.30;;;;;;5054688;28;20083;-67
2022/01/08 08:30:49;;;;;;;2.03;1.40;;;20.80;57.30;;;;;;5053353;28;20086;-67
2022/01/08 08:33:14;;;;;;;2.80;1.73;;;20.80;57.30;;;;;;5054395;28;20025;-67
2022/01/08 08:35:40;;;;;;;2.35;1.50;;;20.80;57.30;;;;;;5053984;28;20387;-67
2022/01/08 08:38:06;;;;;;;2.45;1.55;;;20.80;58.30;;;;;;5042541;28;20068;-67
2022/01/08 08:40:31;;;;;;;2.45;1.63;;;20.80;57.30;;;;;;5047790;28;20025;-67
2022/01/08 08:42:57;;;;;;;2.38;1.48;;;20.80;57.30;;;;;;5035805;28;20029;-67
2022/01/08 08:45:23;;;;;;;1.38;1.20;;;20.80;57.30;;;;;;5032688;28;20037;-67
2022/01/08 08:47:49;;;;;;;2.58;1.40;;;20.80;57.30;;;;;;5034369;28;20086;-68
2022/01/08 08:50:15;;;;;;;2.20;1.40;;;20.80;57.30;;;;;;5016715;28;20507;-67
2022/01/08 08:52:41;;;;;;;2.40;1.48;;;20.80;57.40;;;;;;4999728;28;20026;-67
2022/01/08 08:55:07;;;;;;;3.30;1.45;;;20.80;57.30;;;;;;5034010;28;20029;-67
2022/01/08 08:57:32;;;;;;;2.38;1.60;;;20.80;57.30;;;;;;5033013;28;20550;-67
2022/01/08 08:59:58;;;;;;;1.70;1.40;;;20.80;57.30;;;;;;5032764;28;20061;-67
2022/01/08 09:02:24;;;;;;;1.88;1.20;;;20.80;57.30;;;;;;5016464;28;20017;-67
2022/01/08 09:04:50;;;;;;;2.42;1.58;;;20.80;57.30;;;;;;5033978;28;20120;-67
2022/01/08 09:07:15;;;;;;;2.28;1.30;;;20.80;57.30;;;;;;5032430;28;20468;-67
2022/01/08 09:09:41;;;;;;;2.63;1.52;;;20.80;57.30;;;;;;5033899;28;20026;-67
2022/01/08 09:12:07;;;;;;;1.85;1.38;;;20.80;57.30;;;;;;5033709;28;20045;-67
2022/01/08 09:14:33;;;;;;;2.13;1.58;;;20.80;57.30;;;;;;5032765;28;20025;-67
2022/01/08 09:17:02;;;;;;;1.90;1.33;;;20.80;57.30;;;;;;5042115;28;20075;-67
2022/01/08 09:19:28;;;;;;;2.45;1.23;;;20.80;57.30;;;;;;5016610;28;20021;-67
2022/01/08 09:21:54;;;;;;;3.95;1.25;;;20.80;57.30;;;;;;5048497;28;20498;-67
2022/01/08 09:24:19;;;;;;;2.35;1.48;;;20.80;57.30;;;;;;5037612;28;20017;-67
2022/01/08 09:26:45;;;;;;;2.92;1.38;;;20.80;57.40;;;;;;5044118;28;20404;-67
2022/01/08 09:29:11;;;;;;;2.25;1.27;;;20.80;57.40;;;;;;5044454;28;20446;-67
2022/01/08 09:31:38;;;;;;;4.40;1.30;;;20.80;57.30;;;;;;5038575;28;20060;-67
2022/01/08 09:34:03;;;;;;;2.97;1.60;;;20.80;57.30;;;;;;5048806;28;20511;-67
2022/01/08 09:36:29;;;;;;;2.58;1.23;;;20.80;57.40;;;;;;5047518;28;20021;-67
2022/01/08 09:38:54;;;;;;;1.38;1.08;;;20.80;57.30;;;;;;5025959;28;20438;-67
2022/01/08 09:41:20;;;;;;;3.22;1.23;;;20.80;57.40;;;;;;5044707;28;20032;-67
2022/01/08 09:43:46;;;;;;;2.97;1.23;;;20.80;57.30;;;;;;5050869;28;20021;-67
2022/01/08 09:46:14;;;;;;;1.65;1.20;;;20.80;57.30;;;;;;5034266;28;20025;-67
2022/01/08 09:48:39;;;;;;;1.83;1.30;;;20.80;57.40;;;;;;5045383;28;20025;-67
2022/01/08 09:51:05;;;;;;;2.10;1.40;;;20.80;57.40;;;;;;5032382;28;20033;-67
2022/01/08 09:53:30;;;;;;;1.65;1.40;;;20.80;57.40;;;;;;5024816;28;20601;-67
2022/01/08 09:55:56;;;;;;;1.80;1.17;;;20.80;57.40;;;;;;5049486;28;20063;-67
2022/01/08 09:58:22;;;;;;;2.78;1.40;;;20.80;57.40;;;;;;5039855;28;20022;-67
2022/01/08 10:00:48;;;;;;;1.92;1.23;;;20.80;57.40;;;;;;5047868;28;20025;-67
2022/01/08 10:03:17;;;;;;;1.85;1.10;;;20.80;57.40;;;;;;5033526;28;20025;-67
2022/01/08 10:05:48;;;;;;;1.58;1.15;;;20.80;57.50;;;;;;5043982;28;20064;-67
2022/01/08 10:08:17;;;;;;;2.05;1.30;;;20.80;57.50;;;;;;5041703;28;20024;-67
2022/01/08 10:10:54;;;;;;;1.73;1.02;;;20.80;57.50;;;;;;5036850;28;20040;-68
2022/01/08 10:13:29;;;;;;;1.60;1.35;;;20.80;57.50;;;;;;5050075;28;20024;-67
2022/01/08 10:18:40;;;;;;;1.40;1.10;;;20.80;57.50;;;;;;5031042;28;20037;-67
2022/01/08 10:21:16;;;;;;;1.95;0.93;;;20.80;57.50;;;;;;5046727;28;20041;-67
2022/01/08 10:23:43;;;;;;;3.20;1.30;;;20.80;57.50;;;;;;5036889;28;20509;-67
2022/01/08 10:26:13;;;;;;;1.63;1.00;;;20.80;57.10;;;;;;5040278;28;20103;-67
2022/01/08 10:28:42;;;;;;;2.85;1.40;;;20.70;56.90;;;;;;5028184;28;20039;-68
2022/01/08 10:31:24;;;;;;;3.40;0.98;;;20.70;56.60;;;;;;5048496;28;20025;-67
2022/01/08 10:33:53;;;;;;;2.50;1.10;;;20.60;56.40;;;;;;5030210;28;20031;-67
2022/01/08 10:36:50;;;;;;;1.85;1.00;;;20.50;56.40;;;;;;5032847;28;20025;-68
2022/01/08 10:39:20;;;;;;;2.13;1.10;;;20.50;56.20;;;;;;5038618;28;20047;-68
2022/01/08 10:41:47;;;;;;;1.38;0.90;;;20.40;56.20;;;;;;5035707;28;20017;-68
2022/01/08 10:44:13;;;;;;;2.50;1.00;;;20.30;56.20;;;;;;5049387;28;20028;-67
2022/01/08 10:47:03;;;;;;;2.33;1.10;;;20.20;56.20;;;;;;5046243;28;20106;-67
2022/01/08 10:49:34;;;;;;;1.27;0.85;;;20.20;56.00;;;;;;5034899;28;20045;-67
2022/01/08 10:52:02;;;;;;;1.33;0.85;;;20.10;56.10;;;;;;5043119;28;20025;-66
2022/01/08 10:54:31;;;;;;;1.52;1.10;;;20.10;56.20;;;;;;5041841;28;20030;-67
2022/01/08 10:57:02;;;;;;;2.03;0.95;;;20.00;56.30;;;;;;5022414;28;20024;-67
2022/01/08 10:59:29;;;;;;;1.10;0.90;;;20.00;56.40;;;;;;5041381;28;20162;-67
2022/01/08 11:02:05;;;;;;;1.75;0.80;;;20.00;56.60;;;;;;5036313;28;20384;-67
2022/01/08 11:04:49;;;;;;;2.75;1.27;;;20.00;56.70;;;;;;5045517;28;20032;-66
2022/01/08 11:07:25;;;;;;;2.67;1.38;;;20.00;56.90;;;;;;5037075;28;20045;-67
2022/01/08 11:10:04;;;;;;;2.15;1.30;;;19.90;56.90;;;;;;5044203;28;20614;-67
2022/01/08 11:12:37;;;;;;;2.35;1.30;;;19.90;56.90;;;;;;5024479;28;21984;-66
2022/01/08 11:18:00;;;;;;;2.80;1.40;;;19.90;57.00;;;;;;5045984;28;20017;-67
2022/01/08 11:20:27;;;;;;;2.33;1.02;;;19.80;57.00;;;;;;5039800;28;20061;-67
2022/01/08 11:22:55;;;;;;;1.88;1.15;;;19.80;57.10;;;;;;5003874;28;20025;-68
2022/01/08 11:25:23;;;;;;;2.35;1.30;;;19.80;57.10;;;;;;5037451;28;20021;-68
2022/01/08 11:28:01;;;;;;;2.22;1.05;;;19.70;56.90;;;;;;5045192;28;20061;-67
2022/01/08 11:30:28;;;;;;;1.92;1.08;;;19.70;56.90;;;;;;5042849;28;20507;-68
2022/01/08 11:32:58;;;;;;;2.33;0.93;;;19.60;57.10;;;;;;5045602;28;20021;-67
2022/01/08 11:35:25;;;;;;;1.65;0.80;;;19.60;56.90;;;;;;5043141;28;20484;-67
2022/01/08 11:37:52;;;;;;;1.17;0.90;;;19.60;57.90;;;;;;5023449;28;20032;-67
2022/01/08 11:40:19;;;;;;;1.58;0.80;;;19.50;57.00;;;;;;5041151;28;20018;-67
2022/01/08 11:42:45;;;;;;;3.35;1.15;;;19.50;57.00;;;;;;5040648;28;20036;-67
2022/01/08 11:45:16;;;;;;;2.60;1.00;;;19.40;57.00;;;;;;5042442;28;20032;-68
2022/01/08 11:47:47;;;;;;;2.03;0.80;;;19.50;57.00;;;;;;5040515;28;20021;-67
2022/01/08 11:50:13;;;;;;;2.47;0.90;;;19.40;56.90;;;;;;5043736;28;20014;-67
2022/01/08 11:52:39;;;;;;;2.25;0.90;;;19.40;56.90;;;;;;5038631;28;20027;-67
2022/01/08 11:55:05;;;;;;;1.67;1.00;;;19.30;56.80;;;;;;5041486;28;20031;-67
2022/01/08 11:57:31;;;;;;;2.30;0.80;;;19.30;56.90;;;;;;5036771;28;20021;-67
2022/01/08 11:59:59;;;;;;;2.33;0.82;;;19.20;56.90;;;;;;5052138;28;20372;-67
2022/01/08 12:02:41;;;;;;;1.50;0.82;;;19.20;56.90;;;;;;5003762;28;20060;-67
2022/01/08 12:05:12;;;;;;;1.20;0.80;;;19.20;57.00;;;;;;5043776;28;20056;-69
2022/01/08 12:07:49;;;;;;;1.00;0.70;;;19.10;57.20;;;;;;5053138;28;20484;-71
2022/01/08 12:10:30;;;;;;;2.97;1.00;;;19.20;57.90;;;;;;5039525;28;20056;-71
2022/01/08 12:12:59;;;;;;;1.55;0.70;;;19.20;58.00;;;;;;5029817;28;20022;-71
2022/01/08 12:15:40;;;;;;;1.90;0.88;;;19.30;58.20;;;;;;5041935;28;20018;-71
2022/01/08 12:18:10;;;;;;;0.98;0.85;;;19.40;58.30;;;;;;5042183;28;20025;-71
2022/01/08 12:20:39;;;;;;;1.02;0.70;;;19.40;58.40;;;;;;5040463;28;20463;-71
2022/01/08 12:23:31;;;;;;;2.80;0.80;;;19.50;58.50;;;;;;5051536;28;20119;-71
2022/01/08 12:26:01;;;;;;;1.38;0.70;;;19.60;58.70;;;;;;5041882;28;20041;-71
2022/01/08 12:28:45;;;;;;;1.50;0.80;;;19.60;58.80;;;;;;5039318;28;20040;-71
2022/01/08 12:31:47;;;;;;;1.80;0.90;;;19.70;58.80;;;;;;5035583;28;20406;-71
2022/01/08 12:34:35;;;;;;;2.22;1.02;;;19.70;58.70;;;;;;5033567;28;20113;-70
2022/01/08 12:37:05;;;;;;;2.65;1.10;;;19.80;58.80;;;;;;5029632;28;20391;-73
2022/01/08 12:39:43;;;;;;;1.30;0.70;;;19.80;58.70;;;;;;5055992;28;20128;-72
2022/01/08 12:42:23;;;;;;;1.42;0.60;;;19.90;58.70;;;;;;5049123;28;20059;-73
2022/01/08 12:45:06;;;;;;;1.20;0.70;;;19.90;58.70;;;;;;5036778;28;20033;-72
2022/01/08 12:47:40;;;;;;;1.50;0.80;;;20.00;58.70;;;;;;5036897;28;20014;-73
2022/01/08 12:50:33;;;;;;;0.95;0.80;;;20.00;58.70;;;;;;5046986;28;20029;-73
2022/01/08 12:53:05;;;;;;;1.38;0.65;;;20.10;58.60;;;;;;5017922;28;20388;-73
2022/01/08 12:55:50;;;;;;;1.58;0.93;;;20.10;58.70;;;;;;5040364;28;20033;-73
2022/01/08 12:58:24;;;;;;;1.00;0.75;;;20.10;58.70;;;;;;5042103;28;20021;-72
2022/01/08 13:01:17;;;;;;;1.40;0.63;;;20.20;58.80;;;;;;5042392;28;20017;-72
2022/01/08 13:03:44;;;;;;;1.40;0.73;;;20.20;58.60;;;;;;5045243;28;20021;-72
2022/01/08 13:06:12;;;;;;;1.95;0.68;;;20.20;58.60;;;;;;5039054;28;20033;-72
2022/01/08 13:08:42;;;;;;;1.23;0.60;;;20.30;58.60;;;;;;5043148;28;20115;-72
2022/01/08 13:11:09;;;;;;;1.48;0.65;;;20.30;58.50;;;;;;5022617;28;20029;-72